sensor_id;sensor_type;location;lat;lon;timestamp;pressure;altitude;pressure_sealevel;temperature;humidity
39455;BME280;25155;41.890;23.446;2022-08-01T00:00:38;91809.91;;;19.20;56.45
39455;BME280;25155;41.890;23.446;2022-08-01T00:03:06;91811.53;;;19.12;56.99
39455;BME280;25155;41.890;23.446;2022-08-01T00:05:33;91813.22;;;19.08;57.19
39455;BME280;25155;41.890;23.446;2022-08-01T00:08:02;91807.81;;;19.04;56.89
39455;BME280;25155;41.890;23.446;2022-08-01T00:10:29;91797.41;;;18.99;57.17
39455;BME280;25155;41.890;23.446;2022-08-01T00:12:57;91801.31;;;19.02;57.34
39455;BME280;25155;41.890;23.446;2022-08-01T00:15:24;91807.69;;;19.01;57.29
39455;BME280;25155;41.890;23.446;2022-08-01T00:17:51;91803.47;;;18.99;57.46
39455;BME280;25155;41.890;23.446;2022-08-01T00:20:19;91801.13;;;18.98;57.38
39455;BME280;25155;41.890;23.446;2022-08-01T00:22:46;91806.13;;;18.99;58.25
39455;BME280;25155;41.890;23.446;2022-08-01T00:25:15;91798.38;;;18.94;58.48
39455;BME280;25155;41.890;23.446;2022-08-01T00:27:42;91796.53;;;18.86;58.38
39455;BME280;25155;41.890;23.446;2022-08-01T00:30:09;91792.47;;;18.80;58.13
39455;BME280;25155;41.890;23.446;2022-08-01T00:32:37;91797.34;;;18.69;58.48
39455;BME280;25155;41.890;23.446;2022-08-01T00:35:05;91798.72;;;18.67;57.89
39455;BME280;25155;41.890;23.446;2022-08-01T00:37:32;91800.47;;;18.62;58.67
39455;BME280;25155;41.890;23.446;2022-08-01T00:40:00;91806.06;;;18.61;58.57
39455;BME280;25155;41.890;23.446;2022-08-01T00:42:28;91799.88;;;18.57;58.23
39455;BME280;25155;41.890;23.446;2022-08-01T00:44:56;91799.53;;;18.58;58.62
39455;BME280;25155;41.890;23.446;2022-08-01T00:47:23;91800.63;;;18.57;58.99
39455;BME280;25155;41.890;23.446;2022-08-01T00:49:50;91796.59;;;18.51;58.60
39455;BME280;25155;41.890;23.446;2022-08-01T00:52:18;91802.06;;;18.46;58.47
39455;BME280;25155;41.890;23.446;2022-08-01T00:54:46;91796.94;;;18.41;58.57
39455;BME280;25155;41.890;23.446;2022-08-01T00:57:13;91796.50;;;18.39;58.93
39455;BME280;25155;41.890;23.446;2022-08-01T00:59:42;91787.34;;;18.28;58.83
39455;BME280;25155;41.890;23.446;2022-08-01T01:02:09;91790.16;;;18.22;58.92
39455;BME280;25155;41.890;23.446;2022-08-01T01:04:36;91795.72;;;18.21;58.97
39455;BME280;25155;41.890;23.446;2022-08-01T01:07:07;91793.41;;;18.19;58.91
39455;BME280;25155;41.890;23.446;2022-08-01T01:09:44;91787.66;;;18.17;58.88
39455;BME280;25155;41.890;23.446;2022-08-01T01:12:22;91779.28;;;18.15;58.88
39455;BME280;25155;41.890;23.446;2022-08-01T01:15:01;91783.47;;;18.16;59.60
39455;BME280;25155;41.890;23.446;2022-08-01T01:17:36;91783.16;;;18.18;60.36
39455;BME280;25155;41.890;23.446;2022-08-01T01:20:06;91774.59;;;18.12;59.72
39455;BME280;25155;41.890;23.446;2022-08-01T01:22:47;91778.81;;;18.04;59.77
39455;BME280;25155;41.890;23.446;2022-08-01T01:25:33;91780.69;;;18.04;59.61
39455;BME280;25155;41.890;23.446;2022-08-01T01:28:10;91777.88;;;18.00;60.02
39455;BME280;25155;41.890;23.446;2022-08-01T01:30:43;91768.28;;;17.96;59.98
39455;BME280;25155;41.890;23.446;2022-08-01T01:33:13;91775.72;;;17.94;59.66
39455;BME280;25155;41.890;23.446;2022-08-01T01:35:46;91772.31;;;17.93;60.37
39455;BME280;25155;41.890;23.446;2022-08-01T01:38:17;91774.81;;;17.89;60.21
39455;BME280;25155;41.890;23.446;2022-08-01T01:40:46;91777.44;;;17.89;59.93
39455;BME280;25155;41.890;23.446;2022-08-01T01:43:15;91768.75;;;17.89;59.79
39455;BME280;25155;41.890;23.446;2022-08-01T01:45:46;91776.19;;;17.87;60.17
39455;BME280;25155;41.890;23.446;2022-08-01T01:48:16;91768.09;;;17.83;59.88
39455;BME280;25155;41.890;23.446;2022-08-01T01:50:46;91766.06;;;17.80;60.22
39455;BME280;25155;41.890;23.446;2022-08-01T01:53:17;91761.91;;;17.79;60.24
39455;BME280;25155;41.890;23.446;2022-08-01T01:55:47;91762.69;;;17.71;60.70
39455;BME280;25155;41.890;23.446;2022-08-01T01:58:16;91759.09;;;17.67;60.15
39455;BME280;25155;41.890;23.446;2022-08-01T02:00:47;91755.84;;;17.61;60.30
39455;BME280;25155;41.890;23.446;2022-08-01T02:03:17;91762.50;;;17.59;60.56
39455;BME280;25155;41.890;23.446;2022-08-01T02:05:46;91757.84;;;17.56;60.44
39455;BME280;25155;41.890;23.446;2022-08-01T02:08:15;91765.13;;;17.50;61.46
39455;BME280;25155;41.890;23.446;2022-08-01T02:10:44;91764.19;;;17.46;61.47
39455;BME280;25155;41.890;23.446;2022-08-01T02:13:34;91768.38;;;17.38;61.59
39455;BME280;25155;41.890;23.446;2022-08-01T02:16:05;91754.25;;;17.34;61.39
39455;BME280;25155;41.890;23.446;2022-08-01T02:18:33;91758.44;;;17.35;61.04
39455;BME280;25155;41.890;23.446;2022-08-01T02:21:04;91761.69;;;17.32;61.56
39455;BME280;25155;41.890;23.446;2022-08-01T02:23:34;91766.66;;;17.33;62.42
39455;BME280;25155;41.890;23.446;2022-08-01T02:26:07;91766.34;;;17.26;61.73
39455;BME280;25155;41.890;23.446;2022-08-01T02:28:43;91767.56;;;17.20;61.89
39455;BME280;25155;41.890;23.446;2022-08-01T02:31:17;91757.28;;;17.01;61.81
39455;BME280;25155;41.890;23.446;2022-08-01T02:33:52;91755.59;;;16.96;62.21
39455;BME280;25155;41.890;23.446;2022-08-01T02:36:23;91756.75;;;16.82;62.09
39455;BME280;25155;41.890;23.446;2022-08-01T02:38:53;91762.75;;;16.73;62.14
39455;BME280;25155;41.890;23.446;2022-08-01T02:41:22;91762.28;;;16.71;62.66
39455;BME280;25155;41.890;23.446;2022-08-01T02:43:53;91757.81;;;16.72;62.94
39455;BME280;25155;41.890;23.446;2022-08-01T02:46:27;91760.72;;;16.70;63.21
39455;BME280;25155;41.890;23.446;2022-08-01T02:48:58;91737.25;;;16.51;63.32
39455;BME280;25155;41.890;23.446;2022-08-01T02:51:27;91754.72;;;16.38;63.81
39455;BME280;25155;41.890;23.446;2022-08-01T02:53:57;91756.94;;;16.54;63.85
39455;BME280;25155;41.890;23.446;2022-08-01T02:56:26;91753.72;;;16.57;64.11
39455;BME280;25155;41.890;23.446;2022-08-01T02:59:02;91762.22;;;16.54;63.60
39455;BME280;25155;41.890;23.446;2022-08-01T03:01:33;91760.47;;;16.49;63.71
39455;BME280;25155;41.890;23.446;2022-08-01T03:04:02;91758.91;;;16.48;63.47
39455;BME280;25155;41.890;23.446;2022-08-01T03:06:31;91761.38;;;16.45;63.20
39455;BME280;25155;41.890;23.446;2022-08-01T03:09:00;91759.19;;;16.38;63.43
39455;BME280;25155;41.890;23.446;2022-08-01T03:11:29;91759.00;;;16.34;64.84
39455;BME280;25155;41.890;23.446;2022-08-01T03:13:59;91762.25;;;16.31;64.17
39455;BME280;25155;41.890;23.446;2022-08-01T03:16:29;91766.44;;;16.32;63.66
39455;BME280;25155;41.890;23.446;2022-08-01T03:19:00;91760.38;;;16.32;64.53
39455;BME280;25155;41.890;23.446;2022-08-01T03:21:30;91767.81;;;16.30;64.10
39455;BME280;25155;41.890;23.446;2022-08-01T03:24:01;91763.66;;;16.29;64.17
39455;BME280;25155;41.890;23.446;2022-08-01T03:26:30;91755.63;;;16.34;63.93
39455;BME280;25155;41.890;23.446;2022-08-01T03:29:04;91751.88;;;16.35;63.67
39455;BME280;25155;41.890;23.446;2022-08-01T03:31:34;91760.28;;;16.37;63.79
39455;BME280;25155;41.890;23.446;2022-08-01T03:34:05;91761.19;;;16.32;63.57
39455;BME280;25155;41.890;23.446;2022-08-01T03:36:36;91757.88;;;16.27;63.49
39455;BME280;25155;41.890;23.446;2022-08-01T03:39:09;91756.81;;;16.28;63.58
39455;BME280;25155;41.890;23.446;2022-08-01T03:41:40;91756.50;;;16.29;63.55
39455;BME280;25155;41.890;23.446;2022-08-01T03:44:12;91759.63;;;16.31;63.90
39455;BME280;25155;41.890;23.446;2022-08-01T03:46:43;91762.25;;;16.31;63.73
39455;BME280;25155;41.890;23.446;2022-08-01T03:49:17;91765.25;;;16.16;64.04
39455;BME280;25155;41.890;23.446;2022-08-01T03:51:47;91765.09;;;16.12;64.33
39455;BME280;25155;41.890;23.446;2022-08-01T03:54:19;91757.97;;;16.13;63.67
39455;BME280;25155;41.890;23.446;2022-08-01T03:56:48;91762.75;;;16.11;63.22
39455;BME280;25155;41.890;23.446;2022-08-01T03:59:17;91768.06;;;16.19;63.82
39455;BME280;25155;41.890;23.446;2022-08-01T04:01:45;91764.06;;;16.22;63.65
39455;BME280;25155;41.890;23.446;2022-08-01T04:04:14;91789.00;;;16.24;63.50
39455;BME280;25155;41.890;23.446;2022-08-01T04:06:42;91768.25;;;16.23;63.55
39455;BME280;25155;41.890;23.446;2022-08-01T04:09:11;91765.91;;;16.21;63.56
39455;BME280;25155;41.890;23.446;2022-08-01T04:11:39;91778.00;;;16.22;63.19
39455;BME280;25155;41.890;23.446;2022-08-01T04:14:07;91778.16;;;16.26;63.73
39455;BME280;25155;41.890;23.446;2022-08-01T04:16:35;91776.00;;;16.28;63.40
39455;BME280;25155;41.890;23.446;2022-08-01T04:19:03;91781.44;;;16.32;63.15
39455;BME280;25155;41.890;23.446;2022-08-01T04:21:34;91785.00;;;16.27;63.18
39455;BME280;25155;41.890;23.446;2022-08-01T04:24:06;91787.63;;;16.27;63.48
39455;BME280;25155;41.890;23.446;2022-08-01T04:26:35;91789.34;;;16.32;63.04
39455;BME280;25155;41.890;23.446;2022-08-01T04:29:04;91793.66;;;16.28;63.10
39455;BME280;25155;41.890;23.446;2022-08-01T04:31:33;91794.91;;;16.30;63.03
39455;BME280;25155;41.890;23.446;2022-08-01T04:34:03;91795.09;;;16.34;63.46
39455;BME280;25155;41.890;23.446;2022-08-01T04:36:35;91794.19;;;16.38;63.14
39455;BME280;25155;41.890;23.446;2022-08-01T04:39:04;91796.41;;;16.45;63.06
39455;BME280;25155;41.890;23.446;2022-08-01T04:41:33;91789.56;;;16.44;63.45
39455;BME280;25155;41.890;23.446;2022-08-01T04:44:01;91796.06;;;16.47;63.53
39455;BME280;25155;41.890;23.446;2022-08-01T04:46:29;91780.78;;;16.49;63.98
39455;BME280;25155;41.890;23.446;2022-08-01T04:48:58;91769.16;;;16.50;63.98
39455;BME280;25155;41.890;23.446;2022-08-01T04:51:27;91779.06;;;16.53;64.15
39455;BME280;25155;41.890;23.446;2022-08-01T04:53:55;91784.03;;;16.54;64.12
39455;BME280;25155;41.890;23.446;2022-08-01T04:56:24;91785.78;;;16.59;64.38
39455;BME280;25155;41.890;23.446;2022-08-01T04:58:51;91788.75;;;16.66;63.97
39455;BME280;25155;41.890;23.446;2022-08-01T05:01:39;91789.56;;;16.75;63.39
39455;BME280;25155;41.890;23.446;2022-08-01T05:04:06;91793.63;;;16.82;63.44
39455;BME280;25155;41.890;23.446;2022-08-01T05:06:33;91790.09;;;16.86;63.30
39455;BME280;25155;41.890;23.446;2022-08-01T05:09:02;91789.47;;;16.89;62.93
39455;BME280;25155;41.890;23.446;2022-08-01T05:11:30;91793.84;;;16.94;63.30
39455;BME280;25155;41.890;23.446;2022-08-01T05:13:57;91789.53;;;16.98;63.13
39455;BME280;25155;41.890;23.446;2022-08-01T05:16:24;91794.66;;;17.03;63.37
39455;BME280;25155;41.890;23.446;2022-08-01T05:18:52;91790.97;;;17.13;62.93
39455;BME280;25155;41.890;23.446;2022-08-01T05:21:19;91791.75;;;17.22;62.62
39455;BME280;25155;41.890;23.446;2022-08-01T05:23:46;91791.31;;;17.29;62.64
39455;BME280;25155;41.890;23.446;2022-08-01T05:26:16;91791.78;;;17.31;62.56
39455;BME280;25155;41.890;23.446;2022-08-01T05:28:43;91774.88;;;17.32;62.10
39455;BME280;25155;41.890;23.446;2022-08-01T05:31:10;91793.94;;;17.38;61.98
39455;BME280;25155;41.890;23.446;2022-08-01T05:33:38;91793.19;;;17.37;62.07
39455;BME280;25155;41.890;23.446;2022-08-01T05:36:05;91790.41;;;17.42;62.51
39455;BME280;25155;41.890;23.446;2022-08-01T05:38:33;91788.41;;;17.48;62.00
39455;BME280;25155;41.890;23.446;2022-08-01T05:41:00;91794.75;;;17.56;61.82
39455;BME280;25155;41.890;23.446;2022-08-01T05:43:29;91791.19;;;17.60;62.14
39455;BME280;25155;41.890;23.446;2022-08-01T05:45:56;91793.38;;;17.76;61.61
39455;BME280;25155;41.890;23.446;2022-08-01T05:48:24;91784.22;;;17.82;60.61
39455;BME280;25155;41.890;23.446;2022-08-01T05:50:53;91790.94;;;17.88;60.30
39455;BME280;25155;41.890;23.446;2022-08-01T05:53:21;91790.78;;;17.93;59.65
39455;BME280;25155;41.890;23.446;2022-08-01T05:55:48;91788.28;;;17.97;59.31
39455;BME280;25155;41.890;23.446;2022-08-01T05:58:15;91792.03;;;18.04;59.29
39455;BME280;25155;41.890;23.446;2022-08-01T06:00:44;91777.09;;;18.08;58.64
39455;BME280;25155;41.890;23.446;2022-08-01T06:03:11;91774.63;;;18.21;58.72
39455;BME280;25155;41.890;23.446;2022-08-01T06:05:40;91776.16;;;18.31;57.88
39455;BME280;25155;41.890;23.446;2022-08-01T06:08:07;91774.25;;;18.40;57.91
39455;BME280;25155;41.890;23.446;2022-08-01T06:10:35;91769.75;;;18.49;57.80
39455;BME280;25155;41.890;23.446;2022-08-01T06:13:03;91761.47;;;18.59;58.62
39455;BME280;25155;41.890;23.446;2022-08-01T06:15:30;91757.25;;;18.67;57.78
39455;BME280;25155;41.890;23.446;2022-08-01T06:17:59;91757.69;;;18.78;57.26
39455;BME280;25155;41.890;23.446;2022-08-01T06:20:27;91755.50;;;18.89;57.83
39455;BME280;25155;41.890;23.446;2022-08-01T06:22:54;91758.09;;;18.97;57.58
39455;BME280;25155;41.890;23.446;2022-08-01T06:25:22;91763.19;;;19.03;56.64
39455;BME280;25155;41.890;23.446;2022-08-01T06:27:49;91750.59;;;19.08;55.81
39455;BME280;25155;41.890;23.446;2022-08-01T06:30:16;91756.47;;;19.14;55.23
39455;BME280;25155;41.890;23.446;2022-08-01T06:32:44;91760.47;;;19.20;55.56
39455;BME280;25155;41.890;23.446;2022-08-01T06:35:13;91742.22;;;19.27;55.46
39455;BME280;25155;41.890;23.446;2022-08-01T06:37:40;91746.88;;;19.30;54.51
39455;BME280;25155;41.890;23.446;2022-08-01T06:40:09;91723.72;;;19.27;54.05
39455;BME280;25155;41.890;23.446;2022-08-01T06:42:38;91714.13;;;19.44;54.52
39455;BME280;25155;41.890;23.446;2022-08-01T06:45:07;91719.28;;;19.61;54.74
39455;BME280;25155;41.890;23.446;2022-08-01T06:47:35;91727.94;;;19.70;51.91
39455;BME280;25155;41.890;23.446;2022-08-01T06:50:03;91725.38;;;19.83;53.83
39455;BME280;25155;41.890;23.446;2022-08-01T06:52:33;91728.97;;;19.99;54.10
39455;BME280;25155;41.890;23.446;2022-08-01T06:55:00;91724.94;;;20.14;53.25
39455;BME280;25155;41.890;23.446;2022-08-01T06:57:28;91716.47;;;20.21;52.84
39455;BME280;25155;41.890;23.446;2022-08-01T06:59:55;91716.50;;;20.33;53.10
39455;BME280;25155;41.890;23.446;2022-08-01T07:02:23;91720.06;;;20.50;52.69
39455;BME280;25155;41.890;23.446;2022-08-01T07:04:50;91725.56;;;20.57;51.27
39455;BME280;25155;41.890;23.446;2022-08-01T07:07:17;91713.69;;;20.63;51.38
39455;BME280;25155;41.890;23.446;2022-08-01T07:09:46;91712.28;;;20.66;47.79
39455;BME280;25155;41.890;23.446;2022-08-01T07:12:14;91714.25;;;20.69;46.90
39455;BME280;25155;41.890;23.446;2022-08-01T07:14:41;91704.22;;;20.74;47.20
39455;BME280;25155;41.890;23.446;2022-08-01T07:17:09;91702.91;;;20.80;46.59
39455;BME280;25155;41.890;23.446;2022-08-01T07:19:36;91704.88;;;20.83;46.37
39455;BME280;25155;41.890;23.446;2022-08-01T07:22:03;91713.59;;;20.96;46.76
39455;BME280;25155;41.890;23.446;2022-08-01T07:24:31;91708.31;;;21.09;45.68
39455;BME280;25155;41.890;23.446;2022-08-01T07:27:00;91699.13;;;21.18;45.38
39455;BME280;25155;41.890;23.446;2022-08-01T07:29:27;91705.06;;;21.28;44.90
39455;BME280;25155;41.890;23.446;2022-08-01T07:31:56;91709.50;;;21.24;45.56
39455;BME280;25155;41.890;23.446;2022-08-01T07:34:25;91721.88;;;21.32;44.29
39455;BME280;25155;41.890;23.446;2022-08-01T07:36:52;91705.50;;;21.42;44.13
39455;BME280;25155;41.890;23.446;2022-08-01T07:39:20;91704.19;;;21.48;44.51
39455;BME280;25155;41.890;23.446;2022-08-01T07:41:48;91701.28;;;21.53;44.66
39455;BME280;25155;41.890;23.446;2022-08-01T07:44:16;91702.16;;;21.58;44.17
39455;BME280;25155;41.890;23.446;2022-08-01T07:46:44;91693.28;;;21.66;43.90
39455;BME280;25155;41.890;23.446;2022-08-01T07:49:11;91704.47;;;21.71;44.08
39455;BME280;25155;41.890;23.446;2022-08-01T07:51:38;91696.59;;;21.75;43.77
39455;BME280;25155;41.890;23.446;2022-08-01T07:54:06;91690.69;;;21.82;43.71
39455;BME280;25155;41.890;23.446;2022-08-01T07:56:33;91694.53;;;21.84;43.76
39455;BME280;25155;41.890;23.446;2022-08-01T07:59:00;91699.94;;;21.88;43.71
39455;BME280;25155;41.890;23.446;2022-08-01T08:01:29;91700.50;;;21.93;43.22
39455;BME280;25155;41.890;23.446;2022-08-01T08:03:57;91700.59;;;21.97;42.90
39455;BME280;25155;41.890;23.446;2022-08-01T08:06:24;91697.16;;;21.97;43.18
39455;BME280;25155;41.890;23.446;2022-08-01T08:08:52;91701.22;;;22.06;43.60
39455;BME280;25155;41.890;23.446;2022-08-01T08:11:19;91690.44;;;22.15;42.32
39455;BME280;25155;41.890;23.446;2022-08-01T08:13:47;91697.66;;;22.15;42.69
39455;BME280;25155;41.890;23.446;2022-08-01T08:16:14;91690.94;;;22.21;43.86
39455;BME280;25155;41.890;23.446;2022-08-01T08:18:43;91690.19;;;22.20;42.66
39455;BME280;25155;41.890;23.446;2022-08-01T08:21:10;91681.38;;;22.16;43.14
39455;BME280;25155;41.890;23.446;2022-08-01T08:23:38;91685.94;;;22.32;42.50
39455;BME280;25155;41.890;23.446;2022-08-01T08:26:22;91685.28;;;22.35;42.36
39455;BME280;25155;41.890;23.446;2022-08-01T08:28:51;91686.03;;;22.35;42.63
39455;BME280;25155;41.890;23.446;2022-08-01T08:31:18;91676.28;;;22.39;42.94
39455;BME280;25155;41.890;23.446;2022-08-01T08:33:47;91691.03;;;22.53;42.59
39455;BME280;25155;41.890;23.446;2022-08-01T08:36:14;91673.97;;;22.38;41.89
39455;BME280;25155;41.890;23.446;2022-08-01T08:38:41;91692.75;;;22.61;43.47
39455;BME280;25155;41.890;23.446;2022-08-01T08:41:09;91699.41;;;22.71;42.02
39455;BME280;25155;41.890;23.446;2022-08-01T08:43:36;91687.09;;;22.78;41.96
39455;BME280;25155;41.890;23.446;2022-08-01T08:46:05;91704.31;;;22.84;41.81
39455;BME280;25155;41.890;23.446;2022-08-01T08:48:35;91693.59;;;22.81;42.00
39455;BME280;25155;41.890;23.446;2022-08-01T08:51:06;91693.16;;;22.79;41.73
39455;BME280;25155;41.890;23.446;2022-08-01T08:53:38;91706.13;;;22.80;41.42
39455;BME280;25155;41.890;23.446;2022-08-01T08:56:10;91690.50;;;22.79;41.03
39455;BME280;25155;41.890;23.446;2022-08-01T08:58:39;91696.94;;;22.78;40.50
39455;BME280;25155;41.890;23.446;2022-08-01T09:01:07;91682.38;;;22.88;40.87
39455;BME280;25155;41.890;23.446;2022-08-01T09:03:35;91691.25;;;22.95;41.32
39455;BME280;25155;41.890;23.446;2022-08-01T09:06:04;91682.09;;;23.09;40.54
39455;BME280;25155;41.890;23.446;2022-08-01T09:08:32;91688.28;;;23.13;39.46
39455;BME280;25155;41.890;23.446;2022-08-01T09:10:59;91682.53;;;23.11;38.82
39455;BME280;25155;41.890;23.446;2022-08-01T09:13:27;91678.91;;;23.19;39.10
39455;BME280;25155;41.890;23.446;2022-08-01T09:15:55;91682.84;;;23.25;38.14
39455;BME280;25155;41.890;23.446;2022-08-01T09:18:28;91666.09;;;23.25;38.52
39455;BME280;25155;41.890;23.446;2022-08-01T09:21:14;91676.69;;;23.21;37.97
39455;BME280;25155;41.890;23.446;2022-08-01T09:23:44;91677.97;;;23.27;38.34
39455;BME280;25155;41.890;23.446;2022-08-01T09:26:13;91669.44;;;23.37;39.02
39455;BME280;25155;41.890;23.446;2022-08-01T09:28:41;91667.50;;;23.54;37.65
39455;BME280;25155;41.890;23.446;2022-08-01T09:31:10;91663.22;;;23.69;38.02
39455;BME280;25155;41.890;23.446;2022-08-01T09:33:50;91658.66;;;23.69;37.26
39455;BME280;25155;41.890;23.446;2022-08-01T09:36:20;91663.16;;;23.65;37.30
39455;BME280;25155;41.890;23.446;2022-08-01T09:38:48;91656.75;;;23.70;37.88
39455;BME280;25155;41.890;23.446;2022-08-01T09:41:16;91654.47;;;23.88;37.90
39455;BME280;25155;41.890;23.446;2022-08-01T09:43:49;91657.56;;;23.90;36.88
39455;BME280;25155;41.890;23.446;2022-08-01T09:46:17;91654.31;;;23.81;36.54
39455;BME280;25155;41.890;23.446;2022-08-01T09:48:58;91650.81;;;23.76;36.99
39455;BME280;25155;41.890;23.446;2022-08-01T09:51:32;91663.59;;;23.87;37.80
39455;BME280;25155;41.890;23.446;2022-08-01T09:54:00;91658.34;;;23.90;37.50
39455;BME280;25155;41.890;23.446;2022-08-01T09:56:36;91651.09;;;23.91;37.71
39455;BME280;25155;41.890;23.446;2022-08-01T09:59:04;91657.81;;;24.04;36.92
39455;BME280;25155;41.890;23.446;2022-08-01T10:01:45;91651.22;;;24.18;37.26
39455;BME280;25155;41.890;23.446;2022-08-01T10:04:14;91658.44;;;24.17;36.67
39455;BME280;25155;41.890;23.446;2022-08-01T10:06:45;91652.66;;;24.11;37.53
39455;BME280;25155;41.890;23.446;2022-08-01T10:09:18;91664.41;;;24.10;36.90
39455;BME280;25155;41.890;23.446;2022-08-01T10:11:55;91644.22;;;24.09;37.01
39455;BME280;25155;41.890;23.446;2022-08-01T10:14:25;91648.59;;;24.21;36.18
39455;BME280;25155;41.890;23.446;2022-08-01T10:16:53;91651.41;;;24.28;38.09
39455;BME280;25155;41.890;23.446;2022-08-01T10:19:23;91652.47;;;24.47;36.83
39455;BME280;25155;41.890;23.446;2022-08-01T10:21:53;91648.75;;;24.52;36.42
39455;BME280;25155;41.890;23.446;2022-08-01T10:24:21;91640.03;;;24.55;36.85
39455;BME280;25155;41.890;23.446;2022-08-01T10:26:51;91642.78;;;24.58;36.83
39455;BME280;25155;41.890;23.446;2022-08-01T10:29:21;91625.13;;;24.73;35.55
39455;BME280;25155;41.890;23.446;2022-08-01T10:31:49;91624.81;;;24.78;37.17
39455;BME280;25155;41.890;23.446;2022-08-01T10:34:17;91642.56;;;24.94;36.44
39455;BME280;25155;41.890;23.446;2022-08-01T10:36:46;91635.44;;;25.01;36.25
39455;BME280;25155;41.890;23.446;2022-08-01T10:39:16;91623.34;;;25.08;35.58
39455;BME280;25155;41.890;23.446;2022-08-01T10:41:45;91616.06;;;25.04;35.33
39455;BME280;25155;41.890;23.446;2022-08-01T10:44:13;91642.38;;;25.06;35.66
39455;BME280;25155;41.890;23.446;2022-08-01T10:46:45;91616.47;;;25.07;35.76
39455;BME280;25155;41.890;23.446;2022-08-01T10:49:16;91627.22;;;25.14;36.67
39455;BME280;25155;41.890;23.446;2022-08-01T10:51:45;91627.66;;;25.16;36.20
39455;BME280;25155;41.890;23.446;2022-08-01T10:54:12;91619.97;;;25.11;36.37
39455;BME280;25155;41.890;23.446;2022-08-01T10:56:43;91633.94;;;25.04;35.95
39455;BME280;25155;41.890;23.446;2022-08-01T10:59:12;91619.59;;;24.85;35.67
39455;BME280;25155;41.890;23.446;2022-08-01T11:01:41;91617.47;;;24.98;35.61
39455;BME280;25155;41.890;23.446;2022-08-01T11:04:10;91625.84;;;24.97;35.47
39455;BME280;25155;41.890;23.446;2022-08-01T11:06:46;91623.44;;;24.88;36.16
39455;BME280;25155;41.890;23.446;2022-08-01T11:09:25;91615.63;;;24.76;36.25
39455;BME280;25155;41.890;23.446;2022-08-01T11:12:03;91619.63;;;24.89;36.51
39455;BME280;25155;41.890;23.446;2022-08-01T11:14:32;91608.41;;;25.03;37.22
39455;BME280;25155;41.890;23.446;2022-08-01T11:17:30;91604.78;;;25.18;37.04
39455;BME280;25155;41.890;23.446;2022-08-01T11:20:06;91601.41;;;25.21;35.89
39455;BME280;25155;41.890;23.446;2022-08-01T11:28:40;91590.78;;;25.25;36.00
39455;BME280;25155;41.890;23.446;2022-08-01T11:31:28;91613.56;;;25.19;35.77
39455;BME280;25155;41.890;23.446;2022-08-01T11:33:56;91601.13;;;25.27;35.83
39455;BME280;25155;41.890;23.446;2022-08-01T11:36:24;91589.41;;;25.35;35.22
39455;BME280;25155;41.890;23.446;2022-08-01T11:39:12;91598.91;;;25.32;35.12
39455;BME280;25155;41.890;23.446;2022-08-01T11:41:40;91584.22;;;25.46;35.69
39455;BME280;25155;41.890;23.446;2022-08-01T11:44:10;91588.75;;;25.45;35.28
39455;BME280;25155;41.890;23.446;2022-08-01T11:46:56;91578.41;;;25.40;34.69
39455;BME280;25155;41.890;23.446;2022-08-01T11:49:47;91584.47;;;25.37;35.79
39455;BME280;25155;41.890;23.446;2022-08-01T11:52:18;91580.94;;;25.59;36.01
39455;BME280;25155;41.890;23.446;2022-08-01T11:54:49;91582.22;;;25.73;34.86
39455;BME280;25155;41.890;23.446;2022-08-01T11:57:19;91595.00;;;25.90;35.25
39455;BME280;25155;41.890;23.446;2022-08-01T11:59:50;91581.72;;;25.98;35.40
39455;BME280;25155;41.890;23.446;2022-08-01T12:02:20;91566.88;;;26.00;35.51
39455;BME280;25155;41.890;23.446;2022-08-01T12:04:50;91566.19;;;26.07;35.17
39455;BME280;25155;41.890;23.446;2022-08-01T12:07:18;91575.34;;;26.09;35.04
39455;BME280;25155;41.890;23.446;2022-08-01T12:09:45;91565.69;;;25.98;34.62
39455;BME280;25155;41.890;23.446;2022-08-01T12:12:17;91564.88;;;25.93;34.61
39455;BME280;25155;41.890;23.446;2022-08-01T12:14:45;91564.16;;;25.96;34.61
39455;BME280;25155;41.890;23.446;2022-08-01T12:17:28;91569.78;;;25.88;34.79
39455;BME280;25155;41.890;23.446;2022-08-01T12:19:55;91568.03;;;26.03;35.17
39455;BME280;25155;41.890;23.446;2022-08-01T12:22:23;91563.41;;;25.96;34.36
39455;BME280;25155;41.890;23.446;2022-08-01T12:24:51;91568.78;;;26.00;34.75
39455;BME280;25155;41.890;23.446;2022-08-01T12:27:26;91561.91;;;25.99;34.73
39455;BME280;25155;41.890;23.446;2022-08-01T12:29:56;91558.16;;;26.07;36.00
39455;BME280;25155;41.890;23.446;2022-08-01T12:32:28;91563.63;;;26.21;34.57
39455;BME280;25155;41.890;23.446;2022-08-01T12:35:00;91571.81;;;26.43;35.11
39455;BME280;25155;41.890;23.446;2022-08-01T12:37:28;91550.72;;;26.30;33.59
39455;BME280;25155;41.890;23.446;2022-08-01T12:39:56;91544.25;;;26.31;34.33
39455;BME280;25155;41.890;23.446;2022-08-01T12:42:24;91567.19;;;26.36;34.31
39455;BME280;25155;41.890;23.446;2022-08-01T12:44:52;91550.06;;;26.44;33.44
39455;BME280;25155;41.890;23.446;2022-08-01T12:47:21;91540.22;;;26.59;33.67
39455;BME280;25155;41.890;23.446;2022-08-01T12:49:50;91554.44;;;26.63;32.64
39455;BME280;25155;41.890;23.446;2022-08-01T12:52:18;91544.72;;;26.48;33.00
39455;BME280;25155;41.890;23.446;2022-08-01T12:55:04;91549.41;;;26.58;33.43
39455;BME280;25155;41.890;23.446;2022-08-01T12:57:32;91542.28;;;26.73;33.22
39455;BME280;25155;41.890;23.446;2022-08-01T13:00:14;91546.06;;;26.68;32.52
39455;BME280;25155;41.890;23.446;2022-08-01T13:02:44;91541.47;;;26.69;33.19
39455;BME280;25155;41.890;23.446;2022-08-01T13:05:13;91540.69;;;26.65;33.25
39455;BME280;25155;41.890;23.446;2022-08-01T13:07:44;91528.88;;;26.69;33.53
39455;BME280;25155;41.890;23.446;2022-08-01T13:10:12;91527.75;;;26.78;33.67